Main page
METAR-TAF:

METAR-TAF

Airports :

Adolfo Suárez Madrid–Barajas Airport

Madrid, Spain

latitude: 40-27N, longitude: 003-33W, elevation: 609 m

Current weather observation

The report was made 38 minutes ago, at 04:00 UTC
Wind 1 kt from variable directions
Temperature 14°C
Humidity 100%
Pressure 1025 hPa
Visibility 10 km or more
no clouds below 1500 m and no cumulonimbus

METAR: LEMD 260400Z VRB01KT CAVOK 14/14 Q1025 NOSIG

Time: 06:38 (04:38 UTC)

Forecast

The report was made 5 hours and 38 minutes ago, at 23:00 UTC
Forecast valid from 26 at 00 UTC to 27 at 06 UTC
Wind 6 kt from the Northeast
Visibility 10 km or more
Scattered clouds at a height of 4000 ft
Probability 40% :
Temporary
from 26 at 12 UTC to 26 at 18 UTC
Wind 15 kt from variable directions with gusts up to 25 kt
Visibility: 2000 m
Scattered clouds at a height of 2000 ft, Cumulonimbus.
thunderstorm, rain showers

TAF: LEMD 252300Z 2600/2706 04006KT 9999 SCT040 TX27/2615Z TN15/2606Z PROB40 TEMPO 2612/2618 VRB15G25KT 2000 TS SHRA SCT020CB

Weather observations and forecasts of more than 4000 airports (METAR and TAF reports).

The available stations are represented by yellow and red dots on the map.

Hover mouse over dot to see the name of the station.

Then click to see weather observations and forecasts.

To change the map : click on the green buttons with a black cross to zoom in, on the green button with a dash to zoom out, or on the green arrows for adjacent maps.


METAR-TAF: